createdAt,value
2017-11-16T00:00:00.244Z,12.98
2017-11-16T00:02:28.416Z,12.60
2017-11-16T00:05:00.275Z,13.00
2017-11-16T00:07:28.447Z,11.05
2017-11-16T00:09:56.643Z,11.68
2017-11-16T00:12:24.798Z,13.05
2017-11-16T00:14:55.010Z,11.90
2017-11-16T00:17:23.190Z,12.35
2017-11-16T00:19:51.362Z,11.63
2017-11-16T00:22:19.542Z,13.57
2017-11-16T00:24:48.726Z,10.40
2017-11-16T00:27:16.895Z,11.18
2017-11-16T00:29:45.062Z,10.90
2017-11-16T00:32:15.211Z,10.57
2017-11-16T00:34:44.507Z,10.65
2017-11-16T00:37:12.675Z,11.45
2017-11-16T00:39:40.820Z,10.90
2017-11-16T00:42:09.001Z,12.10
2017-11-16T00:44:38.048Z,11.07
2017-11-16T00:47:07.588Z,12.88
2017-11-16T00:49:35.769Z,10.40
2017-11-16T00:52:03.927Z,12.85
2017-11-16T00:54:32.139Z,13.65
2017-11-16T00:57:00.319Z,11.12
2017-11-16T00:59:29.262Z,12.82
2017-11-16T01:01:57.434Z,13.30
2017-11-16T01:04:29.548Z,12.40
2017-11-16T01:06:58.030Z,11.93
2017-11-16T01:09:32.618Z,12.07
2017-11-16T01:12:00.779Z,11.80
2017-11-16T01:14:29.017Z,14.65
2017-11-16T01:16:57.173Z,12.20
2017-11-16T01:19:26.131Z,11.35
2017-11-16T01:21:54.293Z,12.45
2017-11-16T01:24:26.840Z,11.90
2017-11-16T01:26:54.995Z,12.30
2017-11-16T01:29:26.237Z,13.40
2017-11-16T01:31:54.412Z,11.68
2017-11-16T01:34:28.338Z,13.00
2017-11-16T01:36:56.488Z,12.20
2017-11-16T01:39:39.346Z,13.82
2017-11-16T01:42:07.526Z,11.82
2017-11-16T01:44:35.763Z,13.07
2017-11-16T01:47:03.949Z,12.37
2017-11-16T01:49:32.114Z,12.20
2017-11-16T01:52:00.269Z,12.02
2017-11-16T01:54:28.470Z,10.90
2017-11-16T01:56:56.636Z,12.63
2017-11-16T01:59:24.819Z,11.52
2017-11-16T02:01:52.985Z,12.82
2017-11-16T02:04:22.202Z,12.93
2017-11-16T02:06:50.362Z,17.92
2017-11-16T02:09:18.530Z,36.60
2017-11-16T02:11:46.805Z,49.75
2017-11-16T02:14:15.094Z,45.05
2017-11-16T02:16:43.261Z,23.15
2017-11-16T02:19:11.429Z,19.02
2017-11-16T02:21:40.384Z,14.63
2017-11-16T02:24:08.612Z,15.73
2017-11-16T02:26:36.762Z,15.05
2017-11-16T02:29:05.066Z,12.60
2017-11-16T02:31:33.239Z,15.05
2017-11-16T02:34:01.511Z,12.65
2017-11-16T02:36:29.679Z,14.70
2017-11-16T02:38:57.853Z,13.82
2017-11-16T02:41:26.428Z,14.02
2017-11-16T02:43:54.616Z,13.75
2017-11-16T02:46:22.808Z,16.73
2017-11-16T02:48:50.984Z,16.25
2017-11-16T02:51:19.699Z,16.75
2017-11-16T02:53:47.927Z,14.40
2017-11-16T02:56:16.092Z,13.93
2017-11-16T02:58:44.267Z,10.68
2017-11-16T03:01:13.402Z,12.60
2017-11-16T03:03:43.479Z,11.95
2017-11-16T03:06:11.659Z,13.80
2017-11-16T03:08:39.996Z,13.52
2017-11-16T03:11:08.164Z,14.05
2017-11-16T03:13:36.407Z,14.13
2017-11-16T03:16:04.566Z,14.52
2017-11-16T03:18:33.657Z,14.15
2017-11-16T03:21:01.826Z,12.18
2017-11-16T03:23:31.032Z,14.87
2017-11-16T03:25:59.253Z,12.90
2017-11-16T03:28:28.839Z,15.40
2017-11-16T03:30:57.038Z,14.48
2017-11-16T03:33:34.327Z,14.32
2017-11-16T03:36:02.498Z,12.98
2017-11-16T03:38:31.704Z,14.48
2017-11-16T03:40:59.866Z,14.27
2017-11-16T03:43:28.054Z,14.15
2017-11-16T03:45:56.223Z,14.70
2017-11-16T03:48:24.386Z,14.73
2017-11-16T03:50:52.567Z,14.15
2017-11-16T03:53:20.742Z,13.25
2017-11-16T03:55:48.911Z,14.80
2017-11-16T03:58:17.087Z,14.45
2017-11-16T04:00:45.267Z,15.23
2017-11-16T04:03:14.406Z,16.35
2017-11-16T04:05:42.563Z,15.70
2017-11-16T04:08:10.729Z,15.20
2017-11-16T04:10:38.897Z,16.37
2017-11-16T04:13:07.908Z,15.20
2017-11-16T04:15:36.075Z,17.40
2017-11-16T04:18:04.250Z,17.80
2017-11-16T04:20:32.437Z,14.63
2017-11-16T04:23:00.600Z,18.08
2017-11-16T04:25:28.779Z,16.30
2017-11-16T04:27:56.944Z,17.70
2017-11-16T04:30:25.878Z,17.73
2017-11-16T04:32:54.058Z,20.00
2017-11-16T04:35:22.222Z,20.83
2017-11-16T04:37:50.362Z,20.23
2017-11-16T04:40:18.531Z,19.80
2017-11-16T04:42:46.706Z,18.25
2017-11-16T04:45:15.637Z,18.85
2017-11-16T04:47:43.811Z,21.70
2017-11-16T04:50:11.944Z,23.52
2017-11-16T04:52:40.121Z,20.48
2017-11-16T04:55:08.279Z,22.23
2017-11-16T04:57:36.447Z,20.85
2017-11-16T05:00:04.640Z,19.85
2017-11-16T05:02:33.582Z,22.23
2017-11-16T05:05:01.741Z,20.23
2017-11-16T05:07:29.890Z,20.45
2017-11-16T05:09:58.397Z,22.27
2017-11-16T05:12:26.560Z,21.77
2017-11-16T05:14:54.971Z,23.60
2017-11-16T05:17:24.063Z,25.02
2017-11-16T05:19:52.996Z,24.75
2017-11-16T05:22:21.172Z,24.40
2017-11-16T05:24:55.099Z,26.02
2017-11-16T05:27:24.514Z,24.77
2017-11-16T05:29:53.584Z,24.48
2017-11-16T05:32:21.781Z,26.60
2017-11-16T05:34:51.931Z,26.30
2017-11-16T05:37:20.076Z,25.52
2017-11-16T05:39:48.240Z,27.10
2017-11-16T05:42:16.427Z,29.33
2017-11-16T05:44:46.642Z,26.60
2017-11-16T05:47:15.392Z,26.45
2017-11-16T05:49:43.770Z,28.65
2017-11-16T05:52:11.915Z,28.38
2017-11-16T05:54:40.167Z,28.67
2017-11-16T05:57:08.326Z,25.83
2017-11-16T05:59:57.306Z,29.67
2017-11-16T06:02:25.488Z,27.70
2017-11-16T06:04:57.229Z,27.13
2017-11-16T06:07:25.397Z,28.38
2017-11-16T06:09:53.654Z,24.80
2017-11-16T06:12:22.588Z,26.10
2017-11-16T06:14:54.422Z,27.73
2017-11-16T06:17:23.748Z,26.87
2017-11-16T06:19:52.841Z,29.45
2017-11-16T06:22:22.669Z,25.67
2017-11-16T06:24:50.843Z,27.95
2017-11-16T06:27:19.019Z,28.62
2017-11-16T06:29:47.178Z,30.62
2017-11-16T06:32:15.842Z,28.10
2017-11-16T06:34:44.112Z,28.87
2017-11-16T06:37:12.270Z,26.35
2017-11-16T06:39:40.429Z,29.00
2017-11-16T06:42:08.596Z,26.33
2017-11-16T06:44:37.955Z,26.77
2017-11-16T06:47:06.156Z,28.62
2017-11-16T06:49:34.305Z,25.48
2017-11-16T06:52:03.340Z,27.70
2017-11-16T06:54:42.100Z,28.33
2017-11-16T06:57:11.321Z,27.62
2017-11-16T06:59:39.491Z,27.62
2017-11-16T07:02:07.653Z,29.42
2017-11-16T07:04:35.974Z,28.77
2017-11-16T07:07:04.157Z,31.20
2017-11-16T07:09:32.307Z,26.17
2017-11-16T07:12:00.466Z,29.35
2017-11-16T07:14:45.382Z,32.95
2017-11-16T07:17:17.679Z,28.55
2017-11-16T07:19:46.596Z,27.15
2017-11-16T07:22:14.747Z,29.02
2017-11-16T07:24:44.870Z,30.23
2017-11-16T07:27:13.051Z,28.83
2017-11-16T07:29:41.241Z,29.92
2017-11-16T07:32:10.640Z,29.55
2017-11-16T07:34:51.864Z,27.33
2017-11-16T07:40:25.633Z,30.70
2017-11-16T07:42:55.905Z,30.27
2017-11-16T07:45:24.101Z,29.27
2017-11-16T07:47:53.128Z,27.65
2017-11-16T07:50:21.301Z,31.83
2017-11-16T07:52:49.458Z,28.70
2017-11-16T07:55:18.389Z,27.67
2017-11-16T07:57:46.554Z,27.33
2017-11-16T08:00:15.491Z,29.12
2017-11-16T08:02:43.632Z,30.45
2017-11-16T08:05:11.855Z,28.83
2017-11-16T08:07:40.075Z,28.35
2017-11-16T08:10:08.224Z,29.50
2017-11-16T08:12:36.437Z,30.12
2017-11-16T08:15:05.102Z,30.73
2017-11-16T08:17:33.278Z,31.80
2017-11-16T08:20:01.455Z,27.65
2017-11-16T08:22:29.649Z,27.23
2017-11-16T08:27:52.294Z,27.48
2017-11-16T08:30:20.471Z,27.23
2017-11-16T08:32:53.151Z,28.60
2017-11-16T08:35:22.421Z,27.48
2017-11-16T08:37:51.647Z,27.15
2017-11-16T08:40:20.817Z,25.85
2017-11-16T08:42:48.998Z,27.62
2017-11-16T08:45:17.170Z,27.27
2017-11-16T08:47:46.125Z,29.52
2017-11-16T08:50:15.299Z,25.75
2017-11-16T08:52:44.159Z,28.67
2017-11-16T08:55:12.311Z,26.45
2017-11-16T08:57:41.235Z,25.10
2017-11-16T09:00:10.265Z,26.35
2017-11-16T09:02:38.454Z,24.77
2017-11-16T09:05:06.632Z,21.52
2017-11-16T09:07:34.803Z,23.52
2017-11-16T09:10:03.187Z,22.17
2017-11-16T09:12:31.363Z,25.12
2017-11-16T09:15:01.616Z,24.25
2017-11-16T09:17:29.769Z,25.58
2017-11-16T09:19:58.644Z,24.02
2017-11-16T09:22:26.825Z,25.37
2017-11-16T09:24:55.144Z,22.55
2017-11-16T09:27:23.319Z,24.52
2017-11-16T09:29:51.511Z,24.67
2017-11-16T09:32:21.778Z,23.60
2017-11-16T09:34:50.948Z,20.65
2017-11-16T09:37:19.496Z,21.73
2017-11-16T09:39:48.129Z,22.00
2017-11-16T09:42:16.291Z,21.98
2017-11-16T09:44:46.458Z,23.62
2017-11-16T09:47:15.200Z,22.20
2017-11-16T09:49:43.350Z,21.15
2017-11-16T09:52:11.595Z,19.33
2017-11-16T09:54:45.728Z,19.52
2017-11-16T09:57:13.903Z,21.23
2017-11-16T09:59:42.055Z,21.05
2017-11-16T10:02:10.225Z,21.10
2017-11-16T10:04:38.486Z,22.02
2017-11-16T10:07:06.654Z,20.23
2017-11-16T10:09:34.820Z,20.35
2017-11-16T10:12:02.984Z,31.37
2017-11-16T10:14:31.152Z,19.52
2017-11-16T10:16:59.319Z,20.92
2017-11-16T10:19:27.491Z,21.00
2017-11-16T10:21:55.981Z,21.37
2017-11-16T10:24:41.969Z,19.92
2017-11-16T10:27:23.761Z,19.15
2017-11-16T10:29:51.958Z,21.20
2017-11-16T10:32:21.469Z,18.10
2017-11-16T10:35:02.009Z,19.58
2017-11-16T10:37:43.508Z,19.25
2017-11-16T10:40:11.670Z,19.08
2017-11-16T10:42:53.962Z,17.08
2017-11-16T10:45:22.131Z,16.50
2017-11-16T10:47:51.455Z,18.33
2017-11-16T10:50:19.651Z,18.65
2017-11-16T10:52:47.817Z,17.05
2017-11-16T10:55:16.877Z,18.48
2017-11-16T10:57:46.074Z,17.17
2017-11-16T11:00:14.313Z,19.87
2017-11-16T11:02:42.490Z,17.83
2017-11-16T11:05:10.656Z,18.35
2017-11-16T11:07:38.839Z,18.12
2017-11-16T11:10:07.003Z,16.87
2017-11-16T11:12:39.236Z,19.37
2017-11-16T11:15:07.403Z,15.30
2017-11-16T11:17:35.583Z,14.75
2017-11-16T11:20:03.764Z,15.02
2017-11-16T11:22:31.919Z,16.98
2017-11-16T11:25:00.068Z,15.90
2017-11-16T11:27:29.099Z,15.80
2017-11-16T11:29:57.723Z,16.50
2017-11-16T11:32:27.831Z,15.52
2017-11-16T11:35:02.255Z,17.02
2017-11-16T11:37:44.344Z,12.77
2017-11-16T11:40:13.168Z,16.12
2017-11-16T11:42:45.649Z,13.13
2017-11-16T11:45:13.895Z,16.15
2017-11-16T11:47:56.036Z,15.20
2017-11-16T11:53:20.292Z,15.02
2017-11-16T11:56:01.214Z,14.68
2017-11-16T11:58:41.797Z,14.45
2017-11-16T12:01:22.721Z,14.73
2017-11-16T12:03:53.058Z,13.68
2017-11-16T12:06:21.291Z,14.02
2017-11-16T12:08:49.588Z,14.90
2017-11-16T12:11:17.774Z,14.95
2017-11-16T12:13:46.721Z,14.02
2017-11-16T12:16:15.680Z,13.40
2017-11-16T12:18:43.832Z,15.98
2017-11-16T12:21:11.988Z,15.45
2017-11-16T12:23:41.216Z,15.57
2017-11-16T12:26:09.379Z,15.15
2017-11-16T12:28:37.569Z,15.48
2017-11-16T12:31:05.761Z,13.50
2017-11-16T12:33:37.389Z,14.55
2017-11-16T12:36:05.682Z,16.15
2017-11-16T12:38:33.833Z,14.50
2017-11-16T12:41:02.129Z,13.95
2017-11-16T12:43:36.274Z,14.05
2017-11-16T12:46:05.532Z,15.20
2017-11-16T12:48:33.720Z,14.45
2017-11-16T12:51:03.271Z,19.23
2017-11-16T12:53:36.251Z,16.10
2017-11-16T12:56:05.739Z,16.02
2017-11-16T12:58:35.179Z,16.90
2017-11-16T13:01:04.611Z,24.00
2017-11-16T13:03:44.543Z,14.25
2017-11-16T13:06:14.085Z,15.55
2017-11-16T13:08:49.140Z,15.30
2017-11-16T13:11:18.571Z,13.18
2017-11-16T13:13:53.823Z,14.13
2017-11-16T13:16:23.239Z,14.32
2017-11-16T13:18:52.800Z,20.15
2017-11-16T13:21:22.000Z,15.38
2017-11-16T13:23:50.429Z,14.68
2017-11-16T13:26:19.379Z,18.95
2017-11-16T13:28:47.564Z,23.77
2017-11-16T13:31:15.723Z,17.27
2017-11-16T13:33:43.964Z,15.10
2017-11-16T13:36:12.745Z,16.80
2017-11-16T13:38:40.925Z,17.55
2017-11-16T13:41:09.102Z,15.07
2017-11-16T13:43:40.043Z,15.10
2017-11-16T13:46:08.336Z,18.25
2017-11-16T13:48:36.907Z,15.75
2017-11-16T13:51:06.517Z,18.48
2017-11-16T13:53:40.219Z,16.37
2017-11-16T13:56:10.321Z,27.48
2017-11-16T13:58:39.041Z,17.00
2017-11-16T14:01:07.207Z,15.57
2017-11-16T14:03:37.391Z,17.17
2017-11-16T14:06:06.126Z,16.10
2017-11-16T14:08:34.300Z,16.60
2017-11-16T14:11:02.525Z,18.45
2017-11-16T14:13:38.404Z,16.15
2017-11-16T14:16:07.677Z,19.90
2017-11-16T14:18:42.424Z,16.35
2017-11-16T14:21:10.637Z,18.05
2017-11-16T14:23:39.191Z,18.62
2017-11-16T14:26:08.398Z,16.12
2017-11-16T14:28:37.403Z,16.37
2017-11-16T14:31:05.608Z,14.00
2017-11-16T14:33:39.779Z,14.27
2017-11-16T14:36:09.555Z,14.18
2017-11-16T14:38:38.027Z,15.32
2017-11-16T14:41:08.295Z,16.10
2017-11-16T14:43:40.207Z,14.75
2017-11-16T14:46:09.213Z,17.45
2017-11-16T14:48:37.656Z,14.55
2017-11-16T14:51:05.943Z,15.43
2017-11-16T14:53:36.120Z,16.55
2017-11-16T14:56:04.922Z,15.45
2017-11-16T14:58:33.177Z,15.30
2017-11-16T15:01:01.416Z,18.45
2017-11-16T15:03:32.946Z,18.20
2017-11-16T15:06:03.245Z,15.35
2017-11-16T15:08:31.413Z,14.25
2017-11-16T15:10:59.583Z,15.13
2017-11-16T15:13:30.979Z,14.13
2017-11-16T15:16:00.074Z,13.62
2017-11-16T15:18:29.232Z,13.32
2017-11-16T15:20:57.394Z,14.57
2017-11-16T15:23:26.681Z,14.30
2017-11-16T15:25:55.038Z,14.20
2017-11-16T15:28:23.466Z,13.70
2017-11-16T15:30:51.952Z,15.18
2017-11-16T15:33:22.916Z,12.50
2017-11-16T15:35:52.285Z,13.65
2017-11-16T15:38:23.666Z,12.35
2017-11-16T15:40:52.276Z,12.95
2017-11-16T15:43:23.598Z,14.23
2017-11-16T15:45:51.793Z,13.93
2017-11-16T15:48:21.119Z,14.50
2017-11-16T15:50:49.361Z,14.15
2017-11-16T15:53:17.598Z,14.57
2017-11-16T15:55:46.592Z,14.05
2017-11-16T15:58:14.813Z,14.57
2017-11-16T16:00:42.980Z,15.00
2017-11-16T16:03:11.467Z,15.07
2017-11-16T16:05:39.620Z,14.85
2017-11-16T16:08:09.251Z,13.23
2017-11-16T16:10:37.501Z,13.88
2017-11-16T16:13:30.537Z,16.37
2017-11-16T16:16:05.991Z,18.30
2017-11-16T16:18:34.160Z,14.23
2017-11-16T16:21:08.940Z,14.15
2017-11-16T16:23:42.186Z,15.30
2017-11-16T16:26:10.361Z,12.10
2017-11-16T16:28:41.514Z,13.35
2017-11-16T16:31:09.751Z,13.95
2017-11-16T16:33:57.855Z,15.00
2017-11-16T16:36:27.802Z,13.95
2017-11-16T16:38:58.981Z,16.23
2017-11-16T16:41:27.176Z,15.50
2017-11-16T16:43:55.364Z,14.00
2017-11-16T16:46:24.336Z,13.27
2017-11-16T16:48:52.517Z,13.90
2017-11-16T16:51:20.776Z,14.55
2017-11-16T16:53:49.042Z,15.25
2017-11-16T16:56:17.297Z,14.65
2017-11-16T16:58:45.462Z,15.70
2017-11-16T17:01:13.624Z,15.38
2017-11-16T17:03:46.718Z,16.65
2017-11-16T17:06:14.900Z,15.15
2017-11-16T17:08:45.023Z,17.60
2017-11-16T17:11:13.178Z,14.80
2017-11-16T17:13:44.798Z,15.68
2017-11-16T17:16:13.965Z,15.38
2017-11-16T17:18:42.173Z,14.75
2017-11-16T17:21:10.358Z,15.65
2017-11-16T17:23:45.658Z,15.55
2017-11-16T17:26:13.812Z,14.68
2017-11-16T17:28:41.966Z,15.18
2017-11-16T17:31:10.919Z,15.55
2017-11-16T17:33:45.115Z,16.40
2017-11-16T17:36:22.064Z,14.87
2017-11-16T17:38:50.380Z,13.18
2017-11-16T17:41:24.771Z,16.48
2017-11-16T17:43:56.740Z,18.20
2017-11-16T17:46:25.018Z,17.42
2017-11-16T17:48:53.283Z,17.05
2017-11-16T17:51:21.472Z,14.35
2017-11-16T17:53:49.644Z,17.27
2017-11-16T17:56:17.799Z,17.52
2017-11-16T17:58:45.963Z,15.60
2017-11-16T18:01:14.889Z,17.30
2017-11-16T18:03:44.183Z,22.67
2017-11-16T18:06:12.396Z,16.75
2017-11-16T18:08:40.555Z,15.90
2017-11-16T18:11:08.719Z,17.05
2017-11-16T18:13:40.200Z,18.45
2017-11-16T18:16:08.373Z,16.90
2017-11-16T18:18:36.522Z,17.45
2017-11-16T18:21:06.305Z,18.08
2017-11-16T18:23:37.565Z,19.60
2017-11-16T18:26:06.748Z,15.70
2017-11-16T18:28:36.048Z,18.30
2017-11-16T18:31:04.220Z,20.62
2017-11-16T18:33:32.703Z,17.50
2017-11-16T18:36:00.889Z,18.00
2017-11-16T18:38:29.052Z,18.12
2017-11-16T18:40:57.225Z,19.90
2017-11-16T18:43:25.415Z,17.75
2017-11-16T18:45:53.597Z,17.77
2017-11-16T18:48:21.750Z,18.70
2017-11-16T18:50:49.921Z,19.05
2017-11-16T18:53:19.136Z,18.23
2017-11-16T18:55:47.297Z,18.87
2017-11-16T18:58:16.276Z,18.73
2017-11-16T19:00:44.435Z,16.98
2017-11-16T19:03:13.463Z,18.10
2017-11-16T19:05:42.093Z,17.60
2017-11-16T19:08:10.273Z,17.08
2017-11-16T19:10:38.432Z,22.95
2017-11-16T19:13:07.830Z,19.95
2017-11-16T19:15:36.024Z,18.85
2017-11-16T19:18:05.120Z,17.67
2017-11-16T19:20:33.255Z,18.55
2017-11-16T19:23:01.604Z,19.23
2017-11-16T19:25:30.779Z,19.40
2017-11-16T19:27:59.017Z,18.73
2017-11-16T19:30:27.182Z,21.05
2017-11-16T19:32:56.329Z,18.70
2017-11-16T19:35:25.315Z,19.42
2017-11-16T19:37:54.051Z,19.95
2017-11-16T19:40:22.210Z,19.87
2017-11-16T19:42:50.386Z,19.87
2017-11-16T19:45:18.541Z,18.00
2017-11-16T19:47:47.466Z,18.55
2017-11-16T19:50:16.119Z,17.92
2017-11-16T19:52:45.210Z,20.65
2017-11-16T19:55:13.363Z,17.87
2017-11-16T19:57:42.209Z,21.80
2017-11-16T20:00:10.372Z,19.25
2017-11-16T20:02:38.534Z,20.80
2017-11-16T20:05:06.708Z,22.10
2017-11-16T20:07:34.883Z,19.92
2017-11-16T20:10:03.087Z,19.25
2017-11-16T20:12:31.348Z,23.12
2017-11-16T20:15:05.705Z,20.37
2017-11-16T20:17:37.139Z,19.23
2017-11-16T20:20:10.822Z,21.08
2017-11-16T20:22:38.987Z,19.83
2017-11-16T20:25:07.154Z,17.48
2017-11-16T20:27:35.584Z,21.62
2017-11-16T20:30:04.482Z,19.62
2017-11-16T20:32:34.582Z,17.95
2017-11-16T20:35:02.744Z,19.45
2017-11-16T20:37:36.479Z,19.70
2017-11-16T20:43:22.410Z,19.25
2017-11-16T20:45:56.390Z,18.92
2017-11-16T20:48:30.067Z,20.55
2017-11-16T20:51:13.924Z,20.80
2017-11-16T20:53:42.888Z,21.95
2017-11-16T20:56:11.049Z,20.15
2017-11-16T20:58:39.997Z,19.45
2017-11-16T21:01:08.237Z,23.92
2017-11-16T21:03:36.413Z,20.70
2017-11-16T21:06:04.571Z,15.23
2017-11-16T21:08:32.769Z,21.30
2017-11-16T21:11:01.796Z,21.40
2017-11-16T21:13:33.880Z,21.73
2017-11-16T21:16:02.087Z,22.90
2017-11-16T21:18:31.490Z,18.62
2017-11-16T21:20:59.652Z,21.17
2017-11-16T21:23:35.889Z,18.12
2017-11-16T21:26:05.093Z,15.95
2017-11-16T21:28:33.272Z,22.58
2017-11-16T21:31:01.529Z,17.55
2017-11-16T21:33:29.698Z,22.77
2017-11-16T21:35:58.611Z,20.20
2017-11-16T21:38:26.763Z,23.67
2017-11-16T21:40:54.979Z,22.85
2017-11-16T21:43:23.205Z,19.98
2017-11-16T21:45:51.357Z,20.88
2017-11-16T21:48:19.612Z,19.08
2017-11-16T21:50:50.289Z,21.12
2017-11-16T21:53:22.270Z,18.12
2017-11-16T21:55:50.483Z,24.52
2017-11-16T21:58:19.105Z,20.80
2017-11-16T22:00:47.287Z,22.60
2017-11-16T22:03:15.514Z,19.98
2017-11-16T22:05:43.826Z,19.02
2017-11-16T22:08:12.975Z,21.05
2017-11-16T22:10:41.905Z,20.67
2017-11-16T22:13:13.351Z,21.58
2017-11-16T22:15:41.506Z,23.77
2017-11-16T22:18:10.525Z,24.17
2017-11-16T22:20:39.547Z,23.85
2017-11-16T22:23:08.727Z,20.23
2017-11-16T22:25:36.903Z,21.02
2017-11-16T22:28:05.063Z,25.95
2017-11-16T22:30:33.533Z,21.23
2017-11-16T22:33:01.805Z,23.25
2017-11-16T22:35:30.701Z,23.52
2017-11-16T22:37:58.903Z,21.58
2017-11-16T22:40:27.305Z,25.85
2017-11-16T22:42:56.588Z,22.40
2017-11-16T22:45:24.823Z,24.83
2017-11-16T22:47:53.900Z,21.20
2017-11-16T22:50:22.695Z,24.95
2017-11-16T22:52:51.470Z,21.67
2017-11-16T22:55:19.639Z,23.02
2017-11-16T22:57:47.798Z,22.17
2017-11-16T23:00:15.993Z,22.10
2017-11-16T23:02:45.038Z,23.73
2017-11-16T23:05:13.209Z,21.08
2017-11-16T23:07:41.491Z,24.77
2017-11-16T23:10:09.665Z,25.95
2017-11-16T23:12:37.826Z,24.20
2017-11-16T23:15:06.275Z,23.75
2017-11-16T23:17:34.439Z,23.83
2017-11-16T23:20:03.793Z,23.65
2017-11-16T23:22:32.120Z,22.85
2017-11-16T23:25:01.060Z,22.15
2017-11-16T23:27:29.283Z,21.25
2017-11-16T23:29:57.452Z,24.05
2017-11-16T23:32:25.841Z,23.05
2017-11-16T23:34:54.924Z,25.92
2017-11-16T23:37:23.075Z,21.65
2017-11-16T23:39:51.293Z,24.52
2017-11-16T23:42:20.218Z,25.15
2017-11-16T23:44:49.191Z,22.08
2017-11-16T23:47:18.402Z,24.52
2017-11-16T23:49:46.566Z,22.48
2017-11-16T23:52:14.733Z,23.77
2017-11-16T23:54:42.907Z,22.45
2017-11-16T23:57:11.077Z,23.95
2017-11-16T23:59:40.002Z,22.33
